createdAt,value
2023-02-02T00:00:49.193Z,2.42
2023-02-02T00:03:16.931Z,3.13
2023-02-02T00:05:47.765Z,3.17
2023-02-02T00:08:16.959Z,3.20
2023-02-02T00:10:44.758Z,2.85
2023-02-02T00:13:12.481Z,3.30
2023-02-02T00:15:40.369Z,3.70
2023-02-02T00:18:08.223Z,3.45
2023-02-02T00:20:35.903Z,4.00
2023-02-02T00:23:04.153Z,4.40
2023-02-02T00:25:33.374Z,4.43
2023-02-02T00:28:01.075Z,4.93
2023-02-02T00:30:28.831Z,4.90
2023-02-02T00:32:56.570Z,5.70
2023-02-02T00:35:25.646Z,6.30
2023-02-02T00:37:53.461Z,6.15
2023-02-02T00:40:21.173Z,7.10
2023-02-02T00:42:50.453Z,7.88
2023-02-02T00:45:17.701Z,7.85
2023-02-02T00:47:47.328Z,8.45
2023-02-02T00:50:17.593Z,8.40
2023-02-02T00:52:45.295Z,9.40
2023-02-02T00:55:13.188Z,10.48
2023-02-02T00:57:41.355Z,10.68
2023-02-02T01:00:13.868Z,10.85
2023-02-02T01:02:41.579Z,12.63
2023-02-02T01:05:09.781Z,12.90
2023-02-02T01:07:38.166Z,13.18
2023-02-02T01:10:06.525Z,14.57
2023-02-02T01:12:34.179Z,15.13
2023-02-02T01:15:02.244Z,15.93
2023-02-02T01:17:33.727Z,16.27
2023-02-02T01:20:01.407Z,17.75
2023-02-02T01:22:29.057Z,19.17
2023-02-02T01:24:56.721Z,20.80
2023-02-02T01:27:24.435Z,20.08
2023-02-02T01:29:52.097Z,20.65
2023-02-02T01:32:19.757Z,22.73
2023-02-02T01:34:48.789Z,23.90
2023-02-02T01:37:16.630Z,24.52
2023-02-02T01:39:44.294Z,25.60
2023-02-02T01:42:13.764Z,25.50
2023-02-02T01:45:08.157Z,25.65
2023-02-02T01:47:37.965Z,27.98
2023-02-02T01:50:07.592Z,33.20
2023-02-02T01:52:35.382Z,29.75
2023-02-02T01:55:08.375Z,34.25
2023-02-02T01:57:39.257Z,34.45
2023-02-02T02:00:09.589Z,33.65
2023-02-02T02:02:44.951Z,36.85
2023-02-02T02:05:16.367Z,39.05
2023-02-02T02:07:44.480Z,42.10
2023-02-02T02:10:12.289Z,40.90
2023-02-02T02:12:39.948Z,42.30
2023-02-02T02:15:26.661Z,46.05
2023-02-02T02:18:02.114Z,46.72
2023-02-02T02:21:32.350Z,45.33
2023-02-02T02:24:53.413Z,52.92
2023-02-02T02:27:54.242Z,51.08
2023-02-02T02:30:51.875Z,55.42
2023-02-02T02:33:23.072Z,59.50
2023-02-02T02:36:02.182Z,61.95
2023-02-02T02:38:33.582Z,65.72
2023-02-02T02:41:03.508Z,67.68
2023-02-02T02:43:33.024Z,67.28
2023-02-02T02:46:01.022Z,72.90
2023-02-02T02:48:31.232Z,66.78
2023-02-02T02:51:07.191Z,74.30
2023-02-02T02:53:35.008Z,73.53
2023-02-02T02:56:07.467Z,79.20
2023-02-02T02:58:37.050Z,78.35
2023-02-02T03:01:08.892Z,82.53
2023-02-02T03:03:58.319Z,82.45
2023-02-02T03:06:29.243Z,88.25
2023-02-02T03:08:59.474Z,84.40
2023-02-02T03:11:27.138Z,86.60
2023-02-02T03:13:54.840Z,91.25
2023-02-02T03:16:22.503Z,88.10
2023-02-02T03:18:50.177Z,92.45
2023-02-02T03:21:19.180Z,92.10
2023-02-02T03:23:46.855Z,94.80
2023-02-02T03:26:14.524Z,101.28
2023-02-02T03:28:42.316Z,98.07
2023-02-02T03:31:10.065Z,100.68
2023-02-02T03:33:37.936Z,97.45
2023-02-02T03:36:06.122Z,102.97
2023-02-02T03:38:35.104Z,108.03
2023-02-02T03:41:02.769Z,107.28
2023-02-02T03:43:30.414Z,109.72
2023-02-02T03:45:58.585Z,109.07
2023-02-02T03:48:26.281Z,104.88
2023-02-02T03:50:54.018Z,110.25
2023-02-02T03:53:21.715Z,120.07
2023-02-02T03:55:50.751Z,117.78
2023-02-02T03:58:18.449Z,116.57
2023-02-02T04:00:46.331Z,120.00
2023-02-02T04:03:13.990Z,119.32
2023-02-02T04:05:41.645Z,116.15
2023-02-02T04:08:09.320Z,115.05
2023-02-02T04:10:38.719Z,115.97
2023-02-02T04:13:07.692Z,116.15
2023-02-02T04:15:35.475Z,116.35
2023-02-02T04:18:03.124Z,117.38
2023-02-02T04:20:30.760Z,120.95
2023-02-02T04:22:58.421Z,120.07
2023-02-02T04:25:26.414Z,119.15
2023-02-02T04:27:54.284Z,120.53
2023-02-02T04:30:23.301Z,120.25
2023-02-02T04:32:52.089Z,119.63
2023-02-02T04:35:19.732Z,120.40
2023-02-02T04:37:47.383Z,122.97
2023-02-02T04:40:15.695Z,123.63
2023-02-02T04:42:45.208Z,120.80
2023-02-02T04:45:12.882Z,119.60
2023-02-02T04:47:41.878Z,117.78
2023-02-02T04:50:10.517Z,118.35
2023-02-02T04:52:38.219Z,123.68
2023-02-02T04:55:06.282Z,120.72
2023-02-02T04:57:33.945Z,117.85
2023-02-02T05:00:01.625Z,116.97
2023-02-02T05:02:29.255Z,116.35
2023-02-02T05:04:58.269Z,116.05
2023-02-02T05:07:25.972Z,117.78
2023-02-02T05:09:53.623Z,117.20
2023-02-02T05:12:21.271Z,115.20
2023-02-02T05:14:48.936Z,116.93
2023-02-02T05:17:16.621Z,118.50
2023-02-02T05:19:44.317Z,113.38
2023-02-02T05:22:13.288Z,114.40
2023-02-02T05:24:40.947Z,115.32
2023-02-02T05:27:08.606Z,113.28
2023-02-02T05:29:36.278Z,116.80
2023-02-02T05:32:04.161Z,117.10
2023-02-02T05:34:31.846Z,118.40
2023-02-02T05:36:59.533Z,112.80
2023-02-02T05:39:28.514Z,109.90
2023-02-02T05:41:56.185Z,107.28
2023-02-02T05:44:23.901Z,106.88
2023-02-02T05:46:51.561Z,110.90
2023-02-02T05:49:19.193Z,107.30
2023-02-02T05:51:48.147Z,105.57
2023-02-02T05:54:19.328Z,106.75
2023-02-02T05:56:48.521Z,104.18
2023-02-02T05:59:17.317Z,106.03
2023-02-02T06:01:45.036Z,105.30
2023-02-02T06:04:12.771Z,109.18
2023-02-02T06:06:40.537Z,104.60
2023-02-02T06:09:08.233Z,103.90
2023-02-02T06:11:35.966Z,102.55
2023-02-02T06:14:04.965Z,106.68
2023-02-02T06:16:32.604Z,102.07
2023-02-02T06:19:00.239Z,99.38
2023-02-02T06:21:30.977Z,97.97
2023-02-02T06:23:58.807Z,102.25
2023-02-02T06:26:26.922Z,100.78
2023-02-02T06:28:55.182Z,94.50
2023-02-02T06:31:24.471Z,98.90
2023-02-02T06:33:54.569Z,94.40
2023-02-02T06:36:22.500Z,95.20
2023-02-02T06:38:51.077Z,90.85
2023-02-02T06:41:18.765Z,90.85
2023-02-02T06:43:46.401Z,89.65
2023-02-02T06:46:14.178Z,87.70
2023-02-02T06:48:43.444Z,87.10
2023-02-02T06:51:11.206Z,87.22
2023-02-02T06:53:38.845Z,87.25
2023-02-02T06:56:08.781Z,85.53
2023-02-02T06:58:36.473Z,87.28
2023-02-02T07:01:05.202Z,87.95
2023-02-02T07:03:32.918Z,84.28
2023-02-02T07:06:11.926Z,82.13
2023-02-02T07:08:39.626Z,81.72
2023-02-02T07:11:13.315Z,79.75
2023-02-02T07:13:44.357Z,80.95
2023-02-02T07:16:12.935Z,82.85
2023-02-02T07:18:40.979Z,82.35
2023-02-02T07:21:10.023Z,78.53
2023-02-02T07:23:37.797Z,78.68
2023-02-02T07:26:06.478Z,77.63
2023-02-02T07:28:34.575Z,77.28
2023-02-02T07:31:02.506Z,78.45
2023-02-02T07:33:30.221Z,77.75
2023-02-02T07:35:58.006Z,76.43
2023-02-02T07:38:27.075Z,75.72
2023-02-02T07:40:54.735Z,76.55
2023-02-02T07:43:22.408Z,74.93
2023-02-02T07:45:50.055Z,74.57
2023-02-02T07:48:17.822Z,71.68
2023-02-02T07:50:45.502Z,72.18
2023-02-02T07:53:13.189Z,70.35
2023-02-02T07:55:42.192Z,67.28
2023-02-02T07:58:10.180Z,70.25
2023-02-02T08:00:37.906Z,66.60
2023-02-02T08:03:05.630Z,67.20
2023-02-02T08:05:34.671Z,68.18
2023-02-02T08:08:02.408Z,67.57
2023-02-02T08:10:30.152Z,66.40
2023-02-02T08:12:59.140Z,63.83
2023-02-02T08:15:27.142Z,60.63
2023-02-02T08:17:54.996Z,61.83
2023-02-02T08:20:22.686Z,64.32
2023-02-02T08:22:50.441Z,61.33
2023-02-02T08:25:18.229Z,62.58
2023-02-02T08:27:45.953Z,59.22
2023-02-02T08:30:15.400Z,59.65
2023-02-02T08:32:43.157Z,56.88
2023-02-02T08:35:10.868Z,58.25
2023-02-02T08:37:38.620Z,56.47
2023-02-02T08:40:07.648Z,57.97
2023-02-02T08:42:35.397Z,57.10
2023-02-02T08:46:01.674Z,55.28
2023-02-02T08:48:09.342Z,53.72
2023-02-02T08:50:38.850Z,56.28
2023-02-02T08:53:06.530Z,56.50
2023-02-02T08:55:34.269Z,56.38
2023-02-02T08:58:01.984Z,50.65
2023-02-02T09:00:29.666Z,50.85
2023-02-02T09:02:58.676Z,50.45
2023-02-02T09:05:26.736Z,48.95
2023-02-02T09:07:54.615Z,47.00
2023-02-02T09:10:22.281Z,47.33
2023-02-02T09:12:49.985Z,49.40
2023-02-02T09:15:17.840Z,45.92
2023-02-02T09:17:45.549Z,45.85
2023-02-02T09:20:14.873Z,45.72
2023-02-02T09:22:42.563Z,45.58
2023-02-02T09:25:10.253Z,45.30
2023-02-02T09:27:39.398Z,42.28
2023-02-02T09:30:08.037Z,43.08
2023-02-02T09:32:35.809Z,41.67
2023-02-02T09:35:03.538Z,42.42
2023-02-02T09:37:34.364Z,39.45
2023-02-02T09:40:02.994Z,38.65
2023-02-02T09:42:36.372Z,37.58
2023-02-02T09:45:09.281Z,38.53
2023-02-02T09:47:53.381Z,37.50
2023-02-02T09:50:35.544Z,37.03
2023-02-02T09:53:07.922Z,36.97
2023-02-02T09:55:37.499Z,35.97
2023-02-02T09:58:08.523Z,35.42
2023-02-02T10:00:38.635Z,36.83
2023-02-02T10:03:08.600Z,34.13
2023-02-02T10:05:43.512Z,34.47
2023-02-02T10:08:16.641Z,34.90
2023-02-02T10:10:48.288Z,34.15
2023-02-02T10:13:17.097Z,32.90
2023-02-02T10:15:49.120Z,31.58
2023-02-02T10:18:20.146Z,31.85
2023-02-02T10:20:51.128Z,32.80
2023-02-02T10:23:24.648Z,30.98
2023-02-02T10:25:57.169Z,29.80
2023-02-02T10:28:32.809Z,29.48
2023-02-02T10:31:01.952Z,30.52
2023-02-02T10:33:34.493Z,29.83
2023-02-02T10:36:05.491Z,29.27
2023-02-02T10:38:38.174Z,28.10
2023-02-02T10:41:11.488Z,28.48
2023-02-02T10:44:18.314Z,28.15
2023-02-02T10:46:48.054Z,27.25
2023-02-02T10:49:22.591Z,27.23
2023-02-02T10:51:52.469Z,26.25
2023-02-02T10:54:55.331Z,25.67
2023-02-02T10:57:32.506Z,25.50
2023-02-02T11:00:06.401Z,25.02
2023-02-02T11:02:34.168Z,25.63
2023-02-02T11:05:19.531Z,24.80
2023-02-02T11:07:47.285Z,24.67
2023-02-02T11:10:17.007Z,23.15
2023-02-02T11:12:50.979Z,23.40
2023-02-02T11:15:26.385Z,22.55
2023-02-02T11:17:54.177Z,20.92
2023-02-02T11:20:29.012Z,21.08
2023-02-02T11:23:03.500Z,20.88
2023-02-02T11:25:33.988Z,20.35
2023-02-02T11:28:03.133Z,20.15
2023-02-02T11:30:33.077Z,19.90
2023-02-02T11:33:00.852Z,19.23
2023-02-02T11:35:29.628Z,18.35
2023-02-02T11:37:59.202Z,17.65
2023-02-02T11:40:33.649Z,17.63
2023-02-02T11:43:02.295Z,17.85
2023-02-02T11:45:34.441Z,17.27
2023-02-02T11:48:06.640Z,16.65
2023-02-02T11:50:34.381Z,16.23
2023-02-02T11:53:02.164Z,16.45
2023-02-02T11:55:31.946Z,16.00
2023-02-02T11:58:27.542Z,15.60
2023-02-02T12:00:57.893Z,14.45
2023-02-02T12:03:30.982Z,14.38
2023-02-02T12:06:01.208Z,14.00
2023-02-02T12:08:29.990Z,14.27
2023-02-02T12:11:00.321Z,14.00
2023-02-02T12:13:51.602Z,13.55
2023-02-02T12:16:26.128Z,13.70
2023-02-02T12:19:01.199Z,12.88
2023-02-02T12:21:35.702Z,12.93
2023-02-02T12:24:14.295Z,13.00
2023-02-02T12:26:47.600Z,12.32
2023-02-02T12:29:24.397Z,12.18
2023-02-02T12:32:05.757Z,11.02
2023-02-02T12:34:38.376Z,11.23
2023-02-02T12:37:10.077Z,10.77
2023-02-02T12:39:41.298Z,10.65
2023-02-02T12:42:23.978Z,10.00
2023-02-02T12:45:03.396Z,10.00
2023-02-02T12:47:33.101Z,9.40
2023-02-02T12:50:05.981Z,9.45
2023-02-02T12:52:50.153Z,9.18
2023-02-02T12:55:22.498Z,8.55
2023-02-02T12:57:57.558Z,7.78
2023-02-02T13:00:42.522Z,7.60
2023-02-02T13:03:22.807Z,7.13
2023-02-02T13:05:56.998Z,6.85
2023-02-02T13:08:27.306Z,7.50
2023-02-02T13:10:56.106Z,6.88
2023-02-02T13:13:26.413Z,6.40
2023-02-02T13:15:55.562Z,5.75
2023-02-02T13:18:25.446Z,6.18
2023-02-02T13:20:54.161Z,5.28
2023-02-02T13:23:26.940Z,5.40
2023-02-02T13:25:56.435Z,4.93
2023-02-02T13:28:33.584Z,5.70
2023-02-02T13:31:01.437Z,5.00
2023-02-02T13:33:30.890Z,6.40
2023-02-02T13:36:00.177Z,4.95
2023-02-02T13:38:30.191Z,5.00
2023-02-02T13:40:59.946Z,4.82
2023-02-02T13:43:35.878Z,4.25
2023-02-02T13:46:11.852Z,4.20
2023-02-02T13:48:42.951Z,4.80
2023-02-02T13:51:20.911Z,4.70
2023-02-02T13:53:57.734Z,3.90
2023-02-02T13:56:31.871Z,4.10
2023-02-02T13:59:26.560Z,3.38
2023-02-02T14:01:54.836Z,3.70
2023-02-02T14:04:23.619Z,3.58
2023-02-02T14:06:57.259Z,3.67
2023-02-02T14:09:26.718Z,3.15
2023-02-02T14:11:57.520Z,3.05
2023-02-02T14:14:35.670Z,3.42
2023-02-02T14:17:05.135Z,3.10
2023-02-02T14:19:49.473Z,2.88
2023-02-02T14:22:45.464Z,3.13
2023-02-02T14:25:48.537Z,3.00
2023-02-02T14:28:41.070Z,3.20
2023-02-02T14:31:31.395Z,2.85
2023-02-02T14:34:33.471Z,3.58
2023-02-02T14:37:44.707Z,2.50
2023-02-02T14:40:27.145Z,2.33
2023-02-02T14:43:18.016Z,3.03
2023-02-02T14:45:46.034Z,2.63
2023-02-02T14:48:16.993Z,2.65
2023-02-02T14:50:47.423Z,2.97
2023-02-02T14:53:21.141Z,3.33
2023-02-02T14:55:55.235Z,3.00
2023-02-02T14:58:25.717Z,2.42
2023-02-02T15:00:57.993Z,3.05
2023-02-02T15:03:38.016Z,2.80
2023-02-02T15:06:08.653Z,2.40
2023-02-02T15:08:36.691Z,2.17
2023-02-02T15:11:26.480Z,2.15
2023-02-02T15:14:07.156Z,2.88
2023-02-02T15:16:37.519Z,2.92
2023-02-02T15:19:14.702Z,2.20
2023-02-02T15:21:42.598Z,2.50
2023-02-02T15:24:20.438Z,2.20
2023-02-02T15:26:48.308Z,2.85
2023-02-02T15:29:18.479Z,2.35
2023-02-02T15:31:47.453Z,2.90
2023-02-02T15:34:20.694Z,2.13
2023-02-02T15:36:49.232Z,2.65
2023-02-02T15:39:26.618Z,2.65
2023-02-02T15:42:16.697Z,2.20
2023-02-02T15:44:45.499Z,2.97
2023-02-02T15:47:13.985Z,2.33
2023-02-02T15:49:43.095Z,2.90
2023-02-02T15:52:14.958Z,1.90
2023-02-02T15:54:50.810Z,2.22
2023-02-02T15:57:28.305Z,2.20
2023-02-02T15:59:56.183Z,2.60
2023-02-02T16:02:27.701Z,1.95
2023-02-02T16:04:56.841Z,3.20
2023-02-02T16:07:28.680Z,2.13
2023-02-02T16:09:56.456Z,2.00
2023-02-02T16:12:24.245Z,2.72
2023-02-02T16:14:52.793Z,2.65
2023-02-02T16:17:21.642Z,2.50
2023-02-02T16:19:50.230Z,2.08
2023-02-02T16:26:14.071Z,2.67
2023-02-02T16:28:41.756Z,2.45
2023-02-02T16:31:10.106Z,3.22
2023-02-02T16:33:38.726Z,3.03
2023-02-02T16:36:24.237Z,2.58
2023-02-02T16:38:53.035Z,2.67
2023-02-02T16:41:29.850Z,2.20
2023-02-02T16:43:57.611Z,3.15
2023-02-02T16:46:42.331Z,2.47
2023-02-02T16:49:15.546Z,2.72
2023-02-02T16:51:43.229Z,3.35
2023-02-02T16:54:14.920Z,2.90
2023-02-02T16:56:45.034Z,2.83
2023-02-02T16:59:17.122Z,2.20
2023-02-02T17:01:45.342Z,2.97
2023-02-02T17:04:19.339Z,3.60
2023-02-02T17:06:52.942Z,2.55
2023-02-02T17:09:32.529Z,2.83
2023-02-02T17:12:09.212Z,2.95
2023-02-02T17:14:38.564Z,3.40
2023-02-02T17:17:07.060Z,4.38
2023-02-02T17:19:34.855Z,3.00
2023-02-02T17:22:05.049Z,2.85
2023-02-02T17:24:33.212Z,2.92
2023-02-02T17:27:00.914Z,3.35
2023-02-02T17:29:29.933Z,3.20
2023-02-02T17:31:57.684Z,3.40
2023-02-02T17:34:26.019Z,3.42
2023-02-02T17:36:54.131Z,3.05
2023-02-02T17:39:21.851Z,3.20
2023-02-02T17:44:51.300Z,3.08
2023-02-02T18:53:26.218Z,3.75
2023-02-02T18:55:53.896Z,3.97
2023-02-02T18:58:21.719Z,3.80
2023-02-02T19:00:50.038Z,3.22
2023-02-02T19:03:17.875Z,2.83
2023-02-02T19:06:03.269Z,3.08
2023-02-02T19:08:33.769Z,3.72
2023-02-02T19:11:02.908Z,3.55
2023-02-02T19:13:30.701Z,3.22
2023-02-02T19:15:58.574Z,3.15
2023-02-02T19:18:26.353Z,3.00
2023-02-02T19:20:54.201Z,2.85
2023-02-02T19:23:23.480Z,3.20
2023-02-02T19:25:53.917Z,2.70
2023-02-02T19:28:23.348Z,2.88
2023-02-02T19:30:51.403Z,2.47
2023-02-02T19:33:19.145Z,2.83
2023-02-02T19:35:49.144Z,6.85
2023-02-02T19:38:17.522Z,3.65
2023-02-02T19:40:45.293Z,4.68
2023-02-02T19:43:25.299Z,7.75
2023-02-02T19:45:53.314Z,3.30
2023-02-02T19:48:23.434Z,4.57
2023-02-02T19:50:51.190Z,4.13
2023-02-02T19:53:20.951Z,3.67
2023-02-02T19:57:20.636Z,4.45
2023-02-02T19:59:50.914Z,3.17
2023-02-02T20:02:30.728Z,4.25
2023-02-02T20:05:02.857Z,3.75
2023-02-02T20:07:30.978Z,3.30
2023-02-02T20:10:02.041Z,3.83
2023-02-02T20:12:31.637Z,4.05
2023-02-02T20:15:00.675Z,3.50
2023-02-02T20:17:31.790Z,4.53
2023-02-02T20:19:59.585Z,3.83
2023-02-02T20:22:29.150Z,4.57
2023-02-02T20:24:57.188Z,3.92
2023-02-02T20:27:26.558Z,5.05
2023-02-02T20:29:54.795Z,8.32
2023-02-02T20:32:26.402Z,5.68
2023-02-02T20:34:55.382Z,6.55
2023-02-02T20:37:24.112Z,5.03
2023-02-02T20:39:54.866Z,5.10
2023-02-02T20:42:22.699Z,4.88
2023-02-02T20:44:50.548Z,5.28
2023-02-02T20:47:18.276Z,4.63
2023-02-02T20:49:47.436Z,4.95
2023-02-02T20:52:21.784Z,4.35
2023-02-02T20:54:49.492Z,3.72
2023-02-02T20:57:17.513Z,3.80
2023-02-02T20:59:45.235Z,3.80
2023-02-02T21:02:18.666Z,3.80
2023-02-02T21:04:48.479Z,3.90
2023-02-02T21:07:16.863Z,3.67
2023-02-02T21:09:44.706Z,3.75
2023-02-02T21:12:12.472Z,3.17
2023-02-02T21:14:40.273Z,3.00
2023-02-02T21:17:15.192Z,3.42
2023-02-02T21:19:43.690Z,3.08
2023-02-02T21:22:12.753Z,3.47
2023-02-02T21:24:40.495Z,3.50
2023-02-02T21:27:08.935Z,3.47
2023-02-02T21:29:36.825Z,3.53
2023-02-02T21:32:04.902Z,3.33
2023-02-02T21:34:32.965Z,3.10
2023-02-02T21:37:00.798Z,2.60
2023-02-02T21:39:31.236Z,3.10
2023-02-02T21:42:12.362Z,3.08
2023-02-02T21:44:40.813Z,3.60
2023-02-02T21:47:20.401Z,3.05
2023-02-02T21:49:48.061Z,2.75
2023-02-02T21:52:16.845Z,2.92
2023-02-02T21:54:46.316Z,3.10
2023-02-02T21:57:17.544Z,3.03
2023-02-02T21:59:46.627Z,2.65
2023-02-02T22:02:26.009Z,2.53
2023-02-02T22:04:53.824Z,3.03
2023-02-02T22:07:21.530Z,2.78
2023-02-02T22:09:50.822Z,2.90
2023-02-02T22:12:20.337Z,2.67
2023-02-02T22:14:48.704Z,2.60
2023-02-02T22:17:19.701Z,2.78
2023-02-02T22:19:47.471Z,2.60
2023-02-02T22:22:16.975Z,2.80
2023-02-02T22:24:45.413Z,2.90
2023-02-02T22:27:24.952Z,2.78
2023-02-02T22:29:56.195Z,2.63
2023-02-02T22:32:23.972Z,2.97
2023-02-02T22:34:51.699Z,2.53
2023-02-02T22:37:19.547Z,2.55
2023-02-02T22:39:47.310Z,2.40
2023-02-02T22:42:15.014Z,2.50
2023-02-02T22:44:44.207Z,2.53
2023-02-02T22:47:11.951Z,2.65
2023-02-02T22:49:39.748Z,2.50
2023-02-02T22:52:07.502Z,2.50
2023-02-02T22:54:35.304Z,2.97
2023-02-02T22:57:03.198Z,2.40
2023-02-02T22:59:30.957Z,2.30
2023-02-02T23:02:00.020Z,2.28
2023-02-02T23:04:27.727Z,2.00
2023-02-02T23:06:55.393Z,2.30
2023-02-02T23:09:23.097Z,2.30
2023-02-02T23:11:50.797Z,2.30
2023-02-02T23:14:18.503Z,2.35
2023-02-02T23:16:46.175Z,2.20
2023-02-02T23:19:15.205Z,1.92
2023-02-02T23:21:42.946Z,2.10
2023-02-02T23:24:10.678Z,2.30
2023-02-02T23:26:38.364Z,2.20
2023-02-02T23:29:06.055Z,2.33
2023-02-02T23:31:33.810Z,2.75
2023-02-02T23:34:01.601Z,2.00
2023-02-02T23:36:30.697Z,2.05
2023-02-02T23:38:58.451Z,2.25
2023-02-02T23:41:26.265Z,2.33
2023-02-02T23:43:54.517Z,2.42
2023-02-02T23:46:23.214Z,2.35
2023-02-02T23:48:51.751Z,2.45
2023-02-02T23:51:19.506Z,2.60
2023-02-02T23:53:48.578Z,2.42
2023-02-02T23:56:16.385Z,2.35
2023-02-02T23:58:44.138Z,2.88
